Time;durP1;ratioP1;P1;durP2;ratioP2;P2;SDS_P1;SDS_P2;PMS_P1;PMS_P2;Temp;Humidity;BMP_temperature;BMP_pressure;BME280_temperature;BME280_humidity;BME280_pressure;Samples;Min_cycle;Max_cycle;Signal;HPM_P1;HPM_P2
2023/06/30 00:01:37;;;;;;;8.00;5.22;;;;;;;23.26;100.00;95843.44;5093572;28;20092;-87
2023/06/30 00:04:03;;;;;;;10.13;5.20;;;;;;;23.03;100.00;95840.97;5111201;28;20019;-86
2023/06/30 00:06:29;;;;;;;10.00;5.55;;;;;;;22.89;100.00;95840.50;5085163;27;20031;-87
2023/06/30 00:09:09;;;;;;;11.48;5.55;;;;;;;23.24;100.00;95836.72;5101150;28;20057;-87
2023/06/30 00:11:38;;;;;;;10.65;4.97;;;;;;;23.56;100.00;95838.72;5076272;28;20027;-87
2023/06/30 00:14:03;;;;;;;9.77;5.05;;;;;;;23.47;100.00;95836.47;5080912;28;20050;-87
2023/06/30 00:16:31;;;;;;;9.45;4.95;;;;;;;23.59;100.00;95830.16;5096266;27;20590;-86
2023/06/30 00:18:57;;;;;;;7.25;4.90;;;;;;;23.61;100.00;95825.31;5095704;28;20028;-87
2023/06/30 00:21:23;;;;;;;8.05;4.82;;;;;;;23.80;100.00;95817.78;5088415;27;20027;-87
2023/06/30 00:23:49;;;;;;;7.85;4.70;;;;;;;24.09;100.00;95819.16;5103966;28;20432;-87
2023/06/30 00:26:14;;;;;;;9.45;5.35;;;;;;;23.96;100.00;95822.25;5078586;28;20054;-86
2023/06/30 00:28:40;;;;;;;8.68;4.97;;;;;;;23.84;100.00;95819.72;5077913;28;20015;-87
2023/06/30 00:31:05;;;;;;;9.60;5.28;;;;;;;23.86;100.00;95814.91;5094788;28;20038;-87
2023/06/30 00:33:31;;;;;;;7.22;4.93;;;;;;;23.93;100.00;95818.19;5109710;28;20028;-87
2023/06/30 00:35:57;;;;;;;7.88;4.60;;;;;;;24.06;100.00;95816.97;5074812;28;20022;-87
2023/06/30 00:38:23;;;;;;;7.97;4.93;;;;;;;24.09;100.00;95819.16;5104537;28;20038;-87
2023/06/30 00:40:48;;;;;;;8.20;4.75;;;;;;;23.63;100.00;95820.53;5087935;28;20023;-87
2023/06/30 00:43:15;;;;;;;7.47;5.05;;;;;;;23.59;100.00;95827.47;5095706;28;20519;-86
2023/06/30 00:45:40;;;;;;;8.13;5.10;;;;;;;23.54;100.00;95814.81;5061868;28;20040;-88
2023/06/30 00:48:06;;;;;;;8.52;4.35;;;;;;;23.59;100.00;95814.84;5088381;28;20073;-87
2023/06/30 00:50:32;;;;;;;9.73;4.85;;;;;;;23.67;100.00;95809.03;5087952;28;20027;-87
2023/06/30 00:52:59;;;;;;;7.50;4.63;;;;;;;23.69;100.00;95806.94;5089402;28;20443;-87
2023/06/30 00:55:26;;;;;;;5.47;3.88;;;;;;;23.60;100.00;95805.72;5112087;28;20106;-87
2023/06/30 00:57:52;;;;;;;9.32;4.50;;;;;;;23.63;100.00;95793.69;5091930;28;20035;-87
2023/06/30 01:00:17;;;;;;;9.98;5.10;;;;;;;23.59;100.00;95796.06;5099295;28;20020;-87
2023/06/30 01:03:01;;;;;;;10.88;5.03;;;;;;;23.76;100.00;95794.13;5107359;28;20028;-86
2023/06/30 01:05:35;;;;;;;10.23;5.28;;;;;;;23.77;100.00;95792.25;5080561;28;20020;-87
2023/06/30 01:08:38;;;;;;;9.25;5.07;;;;;;;23.48;100.00;95788.97;5083043;28;20027;-87
2023/06/30 01:11:05;;;;;;;8.40;4.85;;;;;;;23.32;100.00;95784.50;5093656;28;20033;-87
2023/06/30 01:13:32;;;;;;;8.75;4.65;;;;;;;23.24;100.00;95778.50;5092861;28;20022;-87
2023/06/30 01:15:58;;;;;;;9.40;4.90;;;;;;;23.27;100.00;95777.19;5091708;28;20023;-87
2023/06/30 01:18:25;;;;;;;8.35;4.88;;;;;;;23.28;100.00;95774.25;5090379;28;20736;-87
2023/06/30 01:20:51;;;;;;;8.90;5.35;;;;;;;23.22;100.00;95777.94;5087964;27;20031;-87
2023/06/30 01:23:29;;;;;;;8.43;4.45;;;;;;;23.03;100.00;95776.63;5114732;27;20503;-87
2023/06/30 01:25:58;;;;;;;9.45;5.55;;;;;;;23.10;100.00;95766.50;5086094;28;20032;-87
2023/06/30 01:28:27;;;;;;;8.70;4.80;;;;;;;22.69;100.00;95770.50;5098921;27;20337;-87
2023/06/30 01:30:57;;;;;;;8.75;5.30;;;;;;;22.81;100.00;95757.81;5101630;28;20133;-86
2023/06/30 01:33:23;;;;;;;9.55;4.68;;;;;;;22.77;100.00;95756.66;5087610;28;20027;-87
2023/06/30 01:35:49;;;;;;;7.30;4.45;;;;;;;22.48;100.00;95756.81;5075936;28;20863;-87
2023/06/30 01:38:15;;;;;;;7.70;4.93;;;;;;;22.51;100.00;95769.72;5094945;27;20472;-87
2023/06/30 01:40:41;;;;;;;10.00;4.90;;;;;;;22.68;100.00;95761.66;5096729;28;20096;-87
2023/06/30 01:43:07;;;;;;;7.55;5.00;;;;;;;22.90;100.00;95758.19;5094120;27;20019;-87
2023/06/30 01:45:34;;;;;;;7.57;4.97;;;;;;;22.58;100.00;95754.28;5087655;28;20039;-88
2023/06/30 01:48:00;;;;;;;8.60;5.05;;;;;;;22.69;100.00;95749.88;5085226;27;20023;-87
2023/06/30 01:50:31;;;;;;;9.80;4.90;;;;;;;22.76;100.00;95745.13;5079643;28;20115;-86
2023/06/30 01:52:58;;;;;;;6.80;4.65;;;;;;;22.86;100.00;95740.97;5104822;28;20028;-87
2023/06/30 01:55:23;;;;;;;8.00;5.07;;;;;;;22.80;100.00;95740.94;5080520;28;20177;-87
2023/06/30 01:57:50;;;;;;;11.98;4.80;;;;;;;22.64;100.00;95741.78;5079980;28;20566;-87
2023/06/30 02:00:16;;;;;;;13.82;4.95;;;;;;;22.86;100.00;95731.06;5098009;27;20019;-87
2023/06/30 02:02:42;;;;;;;9.10;4.82;;;;;;;22.85;100.00;95731.31;5124531;27;20744;-87
2023/06/30 02:05:08;;;;;;;6.82;4.88;;;;;;;22.85;100.00;95737.50;5075059;28;20115;-87
2023/06/30 02:07:35;;;;;;;7.43;4.63;;;;;;;22.79;100.00;95730.44;5107810;27;20392;-87
2023/06/30 02:10:01;;;;;;;8.02;5.13;;;;;;;22.59;100.00;95730.97;5085969;27;20034;-87
2023/06/30 02:12:28;;;;;;;7.78;4.40;;;;;;;22.83;100.00;95729.69;5081313;27;20038;-85
2023/06/30 02:14:53;;;;;;;9.10;4.80;;;;;;;22.67;100.00;95735.94;5088731;27;20019;-87
2023/06/30 02:17:26;;;;;;;7.38;4.88;;;;;;;22.73;100.00;95729.56;5107523;27;20029;-87
2023/06/30 02:19:52;;;;;;;7.15;4.60;;;;;;;22.74;100.00;95741.91;5093527;28;20019;-87
2023/06/30 02:22:18;;;;;;;6.65;4.60;;;;;;;22.82;100.00;95738.00;5098811;27;20713;-87
2023/06/30 02:24:45;;;;;;;7.75;4.50;;;;;;;22.68;100.00;95731.38;5102913;28;20031;-87
2023/06/30 02:27:10;;;;;;;9.38;5.35;;;;;;;22.67;100.00;95730.56;5113650;28;20027;-87
2023/06/30 02:29:36;;;;;;;8.45;5.07;;;;;;;22.76;100.00;95733.63;5076783;28;20020;-89
2023/06/30 02:32:08;;;;;;;7.97;4.78;;;;;;;22.70;100.00;95729.25;5089224;28;20035;-87
2023/06/30 02:34:33;;;;;;;6.95;5.18;;;;;;;22.74;100.00;95731.19;5086674;28;20051;-87
2023/06/30 02:37:00;;;;;;;9.60;4.70;;;;;;;22.54;100.00;95730.91;5082578;28;20469;-87
2023/06/30 02:39:26;;;;;;;8.38;4.85;;;;;;;22.54;100.00;95731.72;5109071;27;20028;-87
2023/06/30 02:41:53;;;;;;;7.97;5.13;;;;;;;22.16;100.00;95732.50;5083038;28;20059;-87
2023/06/30 02:44:19;;;;;;;9.60;4.95;;;;;;;22.28;100.00;95743.94;5094429;27;20019;-88
2023/06/30 02:46:45;;;;;;;6.68;4.50;;;;;;;22.44;100.00;95741.50;5108572;27;20046;-86
2023/06/30 02:49:11;;;;;;;10.15;5.50;;;;;;;22.56;100.00;95740.31;5114802;27;20023;-89
2023/06/30 02:51:36;;;;;;;8.18;5.07;;;;;;;22.60;100.00;95740.63;5076787;28;20028;-89
2023/06/30 02:54:03;;;;;;;11.27;4.85;;;;;;;22.40;100.00;95737.66;5083981;28;20028;-87
2023/06/30 02:56:29;;;;;;;8.15;5.47;;;;;;;22.66;100.00;95734.28;5102578;28;20030;-87
2023/06/30 02:58:57;;;;;;;10.80;5.85;;;;;;;22.39;100.00;95733.38;5080690;27;20100;-87
2023/06/30 03:01:24;;;;;;;9.63;6.10;;;;;;;22.24;100.00;95732.09;5086182;28;20050;-86
2023/06/30 03:03:52;;;;;;;8.85;6.30;;;;;;;22.40;100.00;95737.66;5092149;27;20023;-88
2023/06/30 03:06:19;;;;;;;8.40;6.63;;;;;;;22.51;100.00;95739.44;5097384;27;20031;-88
2023/06/30 03:08:45;;;;;;;7.95;5.43;;;;;;;22.30;100.00;95736.47;5082744;28;20054;-88
2023/06/30 03:11:11;;;;;;;9.50;5.30;;;;;;;22.33;100.00;95744.03;5090837;27;20022;-88
2023/06/30 03:13:37;;;;;;;12.73;6.20;;;;;;;22.19;100.00;95737.34;5092125;27;20019;-88
2023/06/30 03:16:03;;;;;;;7.95;5.80;;;;;;;22.44;100.00;95730.78;5106018;27;20029;-88
2023/06/30 03:18:29;;;;;;;8.65;6.35;;;;;;;22.54;100.00;95730.91;5080566;27;20536;-88
2023/06/30 03:20:55;;;;;;;8.23;5.65;;;;;;;22.37;100.00;95747.03;5089680;28;20476;-88
2023/06/30 03:23:21;;;;;;;8.57;6.00;;;;;;;22.39;100.00;95738.72;5088569;27;20030;-87
2023/06/30 03:25:47;;;;;;;8.25;4.95;;;;;;;22.36;100.00;95735.47;5080121;28;20396;-87
2023/06/30 03:28:18;;;;;;;7.80;5.32;;;;;;;22.40;100.00;95733.13;5094794;27;20136;-87
2023/06/30 03:30:43;;;;;;;9.50;5.63;;;;;;;22.31;100.00;95737.28;5084966;28;20039;-87
2023/06/30 03:33:09;;;;;;;7.80;5.80;;;;;;;22.48;100.00;95737.25;5082401;28;20016;-87
2023/06/30 03:35:35;;;;;;;7.28;5.32;;;;;;;22.29;100.00;95726.78;5077478;28;20481;-86
2023/06/30 03:38:00;;;;;;;8.95;5.97;;;;;;;22.06;100.00;95732.28;5120845;27;20023;-87
2023/06/30 03:40:26;;;;;;;10.43;6.03;;;;;;;21.96;100.00;95734.81;5080145;28;20627;-87
2023/06/30 03:42:51;;;;;;;9.73;6.13;;;;;;;21.93;100.00;95732.63;5094566;28;20031;-88
2023/06/30 03:45:17;;;;;;;8.63;5.57;;;;;;;21.94;100.00;95734.25;5079375;27;20437;-88
2023/06/30 03:47:49;;;;;;;8.05;5.93;;;;;;;22.10;100.00;95731.59;5082416;28;20438;-87
2023/06/30 03:50:15;;;;;;;;;;;;;;;22.14;100.00;95734.59;5073209;27;20028;-87
2023/06/30 03:52:41;;;;;;;9.57;6.53;;;;;;;21.86;100.00;95730.94;5088820;28;19923;-87
2023/06/30 03:55:07;;;;;;;9.15;6.25;;;;;;;21.97;100.00;95725.75;5104523;28;20039;-88
2023/06/30 03:57:32;;;;;;;10.02;6.25;;;;;;;21.79;100.00;95727.59;5103351;28;20028;-87
2023/06/30 03:59:58;;;;;;;9.02;6.45;;;;;;;21.95;100.00;95727.84;5092026;27;20541;-88
2023/06/30 04:02:24;;;;;;;8.38;6.57;;;;;;;21.80;100.00;95715.84;5088128;28;20042;-88
2023/06/30 04:04:49;;;;;;;11.35;6.63;;;;;;;21.71;100.00;95709.25;5095184;28;20117;-88
2023/06/30 04:07:15;;;;;;;8.60;6.78;;;;;;;21.42;100.00;95709.28;5093469;27;20011;-87
2023/06/30 04:09:40;;;;;;;10.90;6.93;;;;;;;21.26;100.00;95715.41;5122260;27;20031;-88
2023/06/30 04:12:06;;;;;;;9.98;6.85;;;;;;;21.12;100.00;95706.81;5102845;28;20022;-90
2023/06/30 04:14:32;;;;;;;11.00;7.00;;;;;;;21.34;100.00;95706.16;5081494;28;20103;-88
2023/06/30 04:16:59;;;;;;;9.52;6.93;;;;;;;21.49;100.00;95705.66;5099616;28;20032;-86
2023/06/30 04:19:24;;;;;;;8.98;6.20;;;;;;;21.60;100.00;95704.78;5080913;28;20024;-88
2023/06/30 04:21:50;;;;;;;9.38;6.85;;;;;;;21.59;100.00;95700.47;5080535;28;20027;-87
2023/06/30 04:24:15;;;;;;;11.55;6.43;;;;;;;21.63;100.00;95696.28;5080695;28;20024;-87
2023/06/30 04:26:41;;;;;;;9.93;6.78;;;;;;;21.62;100.00;95698.13;5081556;28;20095;-87
2023/06/30 04:29:06;;;;;;;10.20;5.97;;;;;;;21.71;100.00;95695.06;5065673;28;20016;-88
2023/06/30 04:31:32;;;;;;;9.43;6.95;;;;;;;21.57;100.00;95692.69;5082161;27;20024;-88
2023/06/30 04:33:57;;;;;;;9.43;6.47;;;;;;;21.48;100.00;95694.16;5077293;28;20028;-88
2023/06/30 04:36:23;;;;;;;9.65;6.30;;;;;;;21.62;100.00;95686.63;5062294;28;20035;-88
2023/06/30 04:38:49;;;;;;;11.63;6.95;;;;;;;21.99;100.00;95686.94;5092588;28;20020;-87
2023/06/30 04:41:15;;;;;;;12.68;6.45;;;;;;;22.14;100.00;95686.38;5086044;28;20019;-89
2023/06/30 04:43:43;;;;;;;11.68;6.05;;;;;;;22.33;100.00;95687.78;5060660;28;20032;-88
2023/06/30 04:46:09;;;;;;;8.50;6.22;;;;;;;22.36;100.00;95695.28;5060735;28;20024;-88
2023/06/30 04:48:35;;;;;;;8.88;6.20;;;;;;;22.39;100.00;95690.50;5076462;28;20020;-88
2023/06/30 04:51:03;;;;;;;9.68;6.40;;;;;;;22.36;100.00;95687.25;5061930;28;20043;-86
2023/06/30 04:53:35;;;;;;;10.73;6.88;;;;;;;22.34;100.00;95689.38;5077622;28;20030;-88
2023/06/30 04:56:01;;;;;;;10.65;6.95;;;;;;;22.40;100.00;95687.59;5098969;27;20032;-88
2023/06/30 04:58:26;;;;;;;9.40;6.90;;;;;;;22.35;100.00;95691.00;5078953;27;20443;-88
2023/06/30 05:00:52;;;;;;;14.05;6.63;;;;;;;22.39;100.00;95677.91;5065809;28;20548;-86
2023/06/30 05:03:19;;;;;;;10.60;6.40;;;;;;;22.53;100.00;95681.84;5067819;27;20473;-88
2023/06/30 05:05:50;;;;;;;8.48;6.10;;;;;;;22.64;100.00;95682.81;5059685;28;20054;-87
2023/06/30 05:08:16;;;;;;;10.43;7.07;;;;;;;22.90;100.00;95680.44;5060451;27;20022;-88
2023/06/30 05:10:42;;;;;;;10.48;7.30;;;;;;;23.05;100.00;95681.44;5073127;28;20028;-86
2023/06/30 05:13:07;;;;;;;10.20;7.20;;;;;;;22.97;100.00;95675.72;5081318;28;20043;-85
2023/06/30 05:15:33;;;;;;;9.95;7.05;;;;;;;22.96;100.00;95676.78;5076819;28;20035;-87
2023/06/30 05:17:58;;;;;;;10.18;7.50;;;;;;;23.11;100.00;95679.66;5092203;28;20032;-86
2023/06/30 05:20:24;;;;;;;8.63;5.57;;;;;;;23.21;100.00;95682.44;5078305;27;20366;-83
2023/06/30 05:22:49;;;;;;;10.80;7.65;;;;;;;23.72;100.00;95674.09;5056720;28;20019;-82
2023/06/30 05:25:15;;;;;;;10.90;7.13;;;;;;;23.60;100.00;95679.56;5067860;28;20024;-85
2023/06/30 05:27:48;;;;;;;14.95;7.72;;;;;;;23.04;100.00;95676.34;5078467;28;20011;-84
2023/06/30 05:30:13;;;;;;;9.50;6.75;;;;;;;23.28;100.00;95677.69;5087978;27;20031;-84
2023/06/30 05:32:40;;;;;;;9.80;7.32;;;;;;;23.11;100.00;95676.97;5085055;27;20574;-84
2023/06/30 05:35:06;;;;;;;10.60;7.15;;;;;;;23.65;100.00;95678.84;5128210;27;20023;-83
2023/06/30 05:37:31;;;;;;;13.43;7.53;;;;;;;23.72;100.00;95677.56;5106771;28;20026;-82
2023/06/30 05:39:57;;;;;;;10.90;7.75;;;;;;;23.85;100.00;95678.22;5089348;28;20443;-84
2023/06/30 05:42:22;;;;;;;10.73;6.80;;;;;;;24.35;100.00;95676.97;5096766;28;20473;-84
2023/06/30 05:44:48;;;;;;;12.35;7.85;;;;;;;24.13;100.00;95677.88;5100726;27;20676;-84
2023/06/30 05:47:13;;;;;;;10.88;6.97;;;;;;;24.05;100.00;95680.25;5085119;27;20027;-87
2023/06/30 05:49:39;;;;;;;11.63;8.77;;;;;;;24.19;100.00;95678.72;5084635;28;20026;-86
2023/06/30 05:52:07;;;;;;;11.38;7.60;;;;;;;24.11;100.00;95689.94;5083111;28;20077;-87
2023/06/30 05:54:32;;;;;;;11.32;8.07;;;;;;;23.90;100.00;95683.63;5093239;27;20023;-86
2023/06/30 05:56:59;;;;;;;12.20;7.72;;;;;;;23.47;100.00;95685.34;5108839;28;20039;-86
2023/06/30 05:59:27;;;;;;;15.05;9.00;;;;;;;23.13;100.00;95690.09;5106452;28;20031;-88
2023/06/30 06:01:54;;;;;;;13.23;9.38;;;;;;;23.30;100.00;95686.25;5124363;28;20031;-87
2023/06/30 06:04:20;;;;;;;13.65;10.07;;;;;;;23.37;100.00;95686.06;5134946;28;20041;-88
2023/06/30 06:06:46;;;;;;;15.77;11.43;;;;;;;23.65;100.00;95689.56;5106475;28;20023;-87
2023/06/30 06:09:11;;;;;;;16.83;12.38;;;;;;;23.46;100.00;95689.13;5097909;28;20402;-87
2023/06/30 06:11:38;;;;;;;18.10;12.75;;;;;;;23.96;100.00;95696.03;5097000;28;20034;-86
2023/06/30 06:14:04;;;;;;;17.20;12.32;;;;;;;24.18;100.00;95701.31;5106841;28;20469;-86
2023/06/30 06:16:29;;;;;;;18.90;13.48;;;;;;;24.10;100.00;95702.56;5088045;28;20027;-86
2023/06/30 06:18:55;;;;;;;19.02;13.90;;;;;;;24.00;100.00;95705.19;5100777;28;20030;-87
2023/06/30 06:21:26;;;;;;;18.75;12.85;;;;;;;23.82;100.00;95719.00;5126012;28;20027;-87
2023/06/30 06:23:52;;;;;;;25.13;13.73;;;;;;;23.89;100.00;95733.84;5115908;28;20023;-88
2023/06/30 06:26:17;;;;;;;19.23;12.25;;;;;;;24.03;100.00;95739.59;5099109;28;20023;-87
2023/06/30 06:28:44;;;;;;;17.88;11.10;;;;;;;23.75;100.00;95732.66;5110449;28;20023;-87
2023/06/30 06:31:09;;;;;;;14.43;9.90;;;;;;;24.09;100.00;95745.81;5099251;28;20035;-87
2023/06/30 06:33:35;;;;;;;14.82;10.23;;;;;;;23.67;100.00;95746.47;5104314;28;20027;-86
2023/06/30 06:36:01;;;;;;;17.30;11.48;;;;;;;23.64;100.00;95745.13;5118076;28;20057;-86
2023/06/30 06:38:27;;;;;;;13.55;10.07;;;;;;;24.03;100.00;95750.34;5104286;28;20485;-86
2023/06/30 06:40:56;;;;;;;14.55;10.10;;;;;;;24.12;100.00;95750.69;5076800;28;20027;-89
2023/06/30 06:43:26;;;;;;;14.75;9.60;;;;;;;23.97;100.00;95748.66;5079106;28;20027;-89
2023/06/30 06:45:52;;;;;;;11.73;8.82;;;;;;;24.06;100.00;95749.03;5083454;28;20033;-87
2023/06/30 06:48:21;;;;;;;12.00;8.80;;;;;;;24.12;100.00;95746.13;5080604;28;20015;-89
2023/06/30 06:50:48;;;;;;;14.73;9.25;;;;;;;24.41;100.00;95743.94;5099752;28;20062;-88
2023/06/30 06:53:27;;;;;;;13.93;8.73;;;;;;;24.72;100.00;95735.25;5087249;28;20031;-89
2023/06/30 06:55:54;;;;;;;12.13;9.02;;;;;;;25.01;100.00;95731.06;5085787;28;20477;-89
2023/06/30 06:58:20;;;;;;;15.45;9.52;;;;;;;24.57;100.00;95742.16;5048766;27;1238784;-90
2023/06/30 07:00:47;;;;;;;12.38;9.00;;;;;;;25.13;100.00;95737.09;5104763;27;20137;-89
2023/06/30 07:03:14;;;;;;;11.77;8.90;;;;;;;24.76;100.00;95744.41;5099290;27;20031;-88
2023/06/30 07:05:40;;;;;;;14.98;8.77;;;;;;;25.02;100.00;95738.09;5085514;28;20065;-89
2023/06/30 07:08:09;;;;;;;14.57;8.30;;;;;;;25.44;100.00;95736.38;5103591;28;20092;-90
2023/06/30 07:10:35;;;;;;;11.85;8.05;;;;;;;25.72;100.00;95743.16;5083707;28;20027;-90
2023/06/30 07:13:01;;;;;;;12.73;8.30;;;;;;;25.60;100.00;95733.44;5102457;28;20050;-90
2023/06/30 07:15:27;;;;;;;12.15;8.88;;;;;;;26.17;100.00;95741.63;5088683;27;20028;-90
2023/06/30 07:17:53;;;;;;;13.32;8.15;;;;;;;27.01;100.00;95735.53;5107128;27;20019;-91
2023/06/30 07:20:19;;;;;;;10.35;7.38;;;;;;;27.05;100.00;95733.09;5091504;28;20019;-92
2023/06/30 07:22:45;;;;;;;13.20;8.35;;;;;;;27.30;100.00;95740.31;5069228;28;20085;-88
2023/06/30 07:25:10;;;;;;;10.73;7.32;;;;;;;27.11;100.00;95742.00;5102287;28;20031;-91
2023/06/30 07:27:37;;;;;;;11.23;7.68;;;;;;;27.42;100.00;95738.09;5098650;28;20546;-91
2023/06/30 07:30:03;;;;;;;11.13;7.22;;;;;;;27.25;100.00;95746.53;5101677;28;20028;-90
2023/06/30 07:32:30;;;;;;;10.23;7.15;;;;;;;27.25;100.00;95748.44;5093302;28;20031;-89
2023/06/30 07:34:55;;;;;;;12.40;8.00;;;;;;;26.75;100.00;95745.59;5091760;27;20034;-89
2023/06/30 07:37:21;;;;;;;9.82;7.38;;;;;;;26.98;100.00;95738.78;5102097;28;20016;-90
2023/06/30 07:39:47;;;;;;;9.07;6.45;;;;;;;27.11;100.00;95736.59;5094518;28;20788;-89
2023/06/30 07:42:14;;;;;;;12.25;7.50;;;;;;;26.93;100.00;95738.03;5082765;28;20016;-91
2023/06/30 07:44:40;;;;;;;15.23;7.85;;;;;;;26.45;100.00;95735.66;5097468;28;20868;-91
2023/06/30 07:47:05;;;;;;;10.38;6.65;;;;;;;26.59;100.00;95743.22;5113364;28;20036;-91
2023/06/30 07:49:31;;;;;;;12.93;8.95;;;;;;;26.93;100.00;95738.81;5098912;27;20019;-91
2023/06/30 07:51:57;;;;;;;11.85;7.72;;;;;;;26.41;100.00;95739.97;5078328;28;20106;-90
2023/06/30 07:54:23;;;;;;;11.00;8.55;;;;;;;26.25;100.00;95741.06;5104843;27;20046;-90
2023/06/30 07:56:48;;;;;;;10.43;6.70;;;;;;;26.66;100.00;95741.03;5081614;28;20024;-91
2023/06/30 07:59:14;;;;;;;10.35;6.38;;;;;;;26.58;100.00;95731.63;5086685;28;20020;-91
2023/06/30 08:01:40;;;;;;;14.50;6.32;;;;;;;26.50;100.00;95738.38;5111890;28;20065;-89
2023/06/30 08:04:05;;;;;;;10.00;6.80;;;;;;;26.67;100.00;95739.97;5098453;28;20057;-90
2023/06/30 08:06:31;;;;;;;10.70;6.55;;;;;;;26.03;100.00;95747.53;5113030;27;20072;-92
2023/06/30 08:08:56;;;;;;;10.75;7.15;;;;;;;25.41;100.00;95753.84;5097802;27;20019;-91
2023/06/30 08:11:22;;;;;;;8.13;5.88;;;;;;;25.34;100.00;95756.00;5110689;28;20034;-91
2023/06/30 08:13:48;;;;;;;10.20;7.03;;;;;;;25.25;100.00;95752.19;5079062;28;20015;-90
2023/06/30 08:16:15;;;;;;;9.15;6.70;;;;;;;24.92;100.00;95759.56;5072511;28;20035;-90
2023/06/30 08:18:40;;;;;;;10.38;6.22;;;;;;;24.90;100.00;95762.50;5077535;28;20024;-91
2023/06/30 08:21:06;;;;;;;11.90;6.95;;;;;;;24.72;100.00;95759.47;5102457;28;20028;-91
2023/06/30 08:23:31;;;;;;;11.00;7.82;;;;;;;24.94;100.00;95768.16;5119710;27;20027;-90
2023/06/30 08:25:57;;;;;;;12.55;7.68;;;;;;;24.90;100.00;95764.38;5093844;28;20133;-90
2023/06/30 08:28:22;;;;;;;14.70;8.07;;;;;;;24.88;100.00;95777.28;5118007;27;20016;-88
2023/06/30 08:30:48;;;;;;;11.73;8.05;;;;;;;24.50;100.00;95781.09;5082524;28;20034;-88
2023/06/30 08:33:14;;;;;;;10.95;8.07;;;;;;;24.40;100.00;95779.09;5111224;28;20035;-88
2023/06/30 08:35:39;;;;;;;13.48;7.35;;;;;;;24.06;100.00;95784.75;5077104;28;20028;-86
2023/06/30 08:38:05;;;;;;;11.43;7.85;;;;;;;23.45;100.00;95790.28;5103322;27;20027;-88
2023/06/30 08:40:31;;;;;;;9.98;8.38;;;;;;;23.21;100.00;95789.75;5081540;28;20110;-88
2023/06/30 08:43:05;;;;;;;12.05;8.13;;;;;;;22.61;100.00;95800.44;5086891;28;20076;-89
2023/06/30 08:45:34;;;;;;;12.10;8.55;;;;;;;22.17;100.00;95806.44;5104568;28;20379;-87
2023/06/30 08:48:06;;;;;;;13.85;9.48;;;;;;;22.46;100.00;95806.34;5081544;28;20389;-88
2023/06/30 08:50:36;;;;;;;13.30;9.90;;;;;;;22.62;100.00;95813.56;5075316;28;20023;-88
2023/06/30 08:53:03;;;;;;;15.63;10.45;;;;;;;22.30;100.00;95813.31;5098194;28;20960;-88
2023/06/30 08:55:29;;;;;;;13.23;10.77;;;;;;;22.27;100.00;95811.16;5106873;28;20114;-87
2023/06/30 08:57:57;;;;;;;17.77;11.38;;;;;;;22.05;100.00;95819.03;5104420;28;20180;-87
2023/06/30 09:00:23;;;;;;;16.00;11.10;;;;;;;22.29;100.00;95827.78;5080737;28;20026;-88
2023/06/30 09:02:50;;;;;;;13.95;10.77;;;;;;;22.44;100.00;95822.69;5092905;28;20035;-88
2023/06/30 09:05:22;;;;;;;17.70;11.38;;;;;;;22.11;100.00;95831.47;5093900;28;20058;-87
2023/06/30 09:07:56;;;;;;;17.13;11.88;;;;;;;22.25;100.00;95822.09;5118729;28;20043;-88
2023/06/30 09:10:25;;;;;;;17.02;12.88;;;;;;;22.27;100.00;95822.69;5086577;28;20027;-89
2023/06/30 09:12:54;;;;;;;19.23;12.75;;;;;;;22.48;100.00;95817.66;5090575;28;20020;-90
2023/06/30 09:15:27;;;;;;;15.77;12.50;;;;;;;22.36;100.00;95826.56;5094768;28;20114;-89
2023/06/30 09:17:53;;;;;;;18.13;13.73;;;;;;;22.42;100.00;95821.28;5077449;28;20077;-88
2023/06/30 09:20:21;;;;;;;15.57;13.52;;;;;;;22.40;100.00;95821.56;5084684;28;20114;-88
2023/06/30 09:22:47;;;;;;;15.75;13.52;;;;;;;22.65;100.00;95823.78;5082453;28;20542;-90
2023/06/30 09:25:24;;;;;;;19.35;17.13;;;;;;;23.00;100.00;95830.75;5077956;28;20024;-91
2023/06/30 09:27:52;;;;;;;20.42;18.20;;;;;;;22.72;100.00;95827.13;5082224;28;20016;-82
2023/06/30 09:31:01;;;;;;;18.08;14.15;;;;;;;23.11;100.00;95832.53;5076110;28;20100;-80
2023/06/30 09:33:34;;;;;;;17.90;14.98;;;;;;;23.03;100.00;95836.44;5069191;28;20062;-81
2023/06/30 09:36:00;;;;;;;18.58;15.60;;;;;;;22.85;100.00;95825.16;5090501;28;20019;-81
2023/06/30 09:38:28;;;;;;;20.10;17.10;;;;;;;23.13;100.00;95819.66;5084839;28;20558;-81
2023/06/30 09:41:19;;;;;;;18.58;14.73;;;;;;;22.80;100.00;95821.34;5095617;28;20934;-80
2023/06/30 09:43:44;;;;;;;20.42;13.98;;;;;;;22.59;100.00;95819.41;5069170;28;20035;-81
2023/06/30 09:46:11;;;;;;;18.65;14.63;;;;;;;22.91;100.00;95818.81;5072391;27;20024;-82
2023/06/30 09:48:39;;;;;;;17.58;13.77;;;;;;;22.74;100.00;95816.97;5108629;27;20115;-82
2023/06/30 09:51:07;;;;;;;16.70;13.20;;;;;;;22.62;100.00;95818.94;5073828;28;20467;-81
2023/06/30 09:53:41;;;;;;;18.63;14.98;;;;;;;22.77;100.00;95819.16;5073932;27;20693;-81
2023/06/30 09:56:08;;;;;;;16.98;13.55;;;;;;;22.87;100.00;95814.97;5105653;28;20033;-81
2023/06/30 09:58:36;;;;;;;18.35;13.50;;;;;;;22.91;100.00;95818.81;5074227;27;20016;-81
2023/06/30 10:01:01;;;;;;;15.88;12.23;;;;;;;22.81;100.00;95825.66;5095657;28;20427;-80
2023/06/30 10:03:28;;;;;;;16.50;13.00;;;;;;;22.83;100.00;95818.16;5092135;28;20084;-82
2023/06/30 10:05:53;;;;;;;17.45;13.00;;;;;;;23.17;100.00;95812.75;5106668;28;20077;-81
2023/06/30 10:08:22;;;;;;;16.67;12.98;;;;;;;23.12;100.00;95810.00;5104233;27;20027;-81
2023/06/30 10:10:53;;;;;;;19.10;13.63;;;;;;;22.79;100.00;95810.84;5081830;28;20034;-81
2023/06/30 10:13:20;;;;;;;18.92;14.07;;;;;;;23.42;100.00;95800.72;5079243;27;20107;-81
2023/06/30 10:15:49;;;;;;;17.45;13.93;;;;;;;23.17;100.00;95804.72;5101453;27;20076;-84
2023/06/30 10:18:17;;;;;;;16.98;12.55;;;;;;;23.47;100.00;95795.38;5091886;27;20708;-82
2023/06/30 10:20:42;;;;;;;15.80;13.23;;;;;;;23.35;100.00;95798.22;5099597;28;20038;-80
2023/06/30 10:23:09;;;;;;;17.90;13.77;;;;;;;23.40;100.00;95809.00;5080754;28;20023;-82
2023/06/30 10:25:41;;;;;;;19.67;14.75;;;;;;;23.73;100.00;95799.19;5085218;28;20116;-80
2023/06/30 10:28:08;;;;;;;17.08;13.20;;;;;;;23.61;100.00;95801.16;5102995;28;20020;-81
2023/06/30 10:30:34;;;;;;;15.90;13.40;;;;;;;23.80;100.00;95796.31;5115666;27;20023;-81
2023/06/30 10:33:00;;;;;;;16.75;14.35;;;;;;;24.07;100.00;95802.47;5096758;27;20019;-81
2023/06/30 10:35:27;;;;;;;19.05;14.85;;;;;;;23.74;100.00;95798.97;5091939;27;20027;-81
2023/06/30 10:38:05;;;;;;;20.50;16.83;;;;;;;23.99;100.00;95795.69;5085763;28;20095;-81
2023/06/30 10:40:39;;;;;;;24.90;21.52;;;;;;;24.10;100.00;95796.59;5104045;27;20039;-80
2023/06/30 10:43:13;;;;;;;18.70;14.60;;;;;;;23.72;100.00;95789.53;5091738;28;20020;-81
2023/06/30 10:46:07;;;;;;;18.92;14.88;;;;;;;23.68;100.00;95789.22;5078819;28;20034;-81
2023/06/30 10:48:40;;;;;;;17.50;15.60;;;;;;;23.80;100.00;95777.50;5070206;27;20070;-83
2023/06/30 10:51:10;;;;;;;;;;;;;;;24.08;100.00;95771.88;5081509;28;20523;-82
2023/06/30 10:53:36;;;;;;;18.23;14.25;;;;;;;23.96;100.00;95768.53;5092842;28;20381;-82
2023/06/30 10:56:21;;;;;;;15.48;13.38;;;;;;;24.22;100.00;95765.00;5092430;28;20072;-82
2023/06/30 10:58:47;;;;;;;17.00;13.73;;;;;;;23.80;100.00;95774.81;5076294;28;20035;-82
2023/06/30 11:01:14;;;;;;;18.80;15.35;;;;;;;24.17;100.00;95769.50;5073233;28;20436;-83
2023/06/30 11:03:58;;;;;;;16.95;14.75;;;;;;;23.69;100.00;95777.41;5101985;28;20107;-82
2023/06/30 11:06:26;;;;;;;18.38;14.70;;;;;;;23.69;100.00;95781.97;5085877;27;20065;-81
2023/06/30 11:09:03;;;;;;;18.90;15.45;;;;;;;23.72;100.00;95779.59;5122975;27;20047;-82
2023/06/30 11:11:47;;;;;;;18.15;15.48;;;;;;;23.29;100.00;95780.44;5093135;28;20027;-81
2023/06/30 11:14:12;;;;;;;22.15;18.10;;;;;;;23.45;100.00;95784.09;5076257;27;20038;-82
2023/06/30 11:17:05;;;;;;;16.25;14.40;;;;;;;23.41;100.00;95783.00;5089450;28;20032;-82
2023/06/30 11:19:31;;;;;;;19.40;16.35;;;;;;;24.12;100.00;95781.03;5080059;28;20044;-83
2023/06/30 11:22:25;;;;;;;21.58;15.85;;;;;;;23.86;100.00;95768.44;5092268;28;20027;-83